METAR Data
IDs: Format: Raw Decoded Include TAF

Data at: 1216 UTC 17 Sep 2019

METAR for:PASD (Sand Point Arpt, AK, US)
Text:PASD 171205Z AUTO 00000KT 2 1/2SM -RA BR BKN005 OVC018 11/10 A2980 RMK AO2 CIG 004V009 P0000
Temperature: 11.0°C ( 52°F)
Dewpoint: 10.0°C ( 50°F) [RH = 94%]
Pressure (altimeter):29.80 inches Hg (1009.2 mb)
Winds:calm
Visibility: 2.50 sm ( 4.02 km)
Ceiling:500 feet AGL
Clouds: broken clouds at 500 feet AGL, overcast cloud deck at 1800 feet AGL
Weather:-RA BR (light rain, mist)
QC Flag:automated observation with no human augmentation
Text:PASD 171147Z AUTO 13003KT 2 1/2SM -RA BR OVC005 11/10 A2981 RMK AO2 P0000
Temperature: 11.0°C ( 52°F)
Dewpoint: 10.0°C ( 50°F) [RH = 94%]
Pressure (altimeter):29.81 inches Hg (1009.6 mb)
Winds:from the SE (130 degrees) at 3 MPH (3 knots; 1.5 m/s)
Visibility: 2.50 sm ( 4.02 km)
Ceiling:500 feet AGL
Clouds: overcast cloud deck at 500 feet AGL
Weather:-RA BR (light rain, mist)
QC Flag:automated observation with no human augmentation
Text:PASD 171139Z AUTO 14003KT 1 3/4SM -RA BR OVC005 10/10 A2982 RMK AO2 P0000
Temperature: 10.0°C ( 50°F)
Dewpoint: 10.0°C ( 50°F) [RH = 100%]
Pressure (altimeter):29.82 inches Hg (1009.9 mb)
Winds:from the SE (140 degrees) at 3 MPH (3 knots; 1.5 m/s)
Visibility: 1.75 sm ( 2.82 km)
Ceiling:500 feet AGL
Clouds: overcast cloud deck at 500 feet AGL
Weather:-RA BR (light rain, mist)
QC Flag:automated observation with no human augmentation
Text:PASD 171113Z AUTO 00000KT 2SM -RA BR OVC005 10/09 A2982 RMK AO2 CIG 003V007 P0000
Temperature: 10.0°C ( 50°F)
Dewpoint: 9.0°C ( 48°F) [RH = 93%]
Pressure (altimeter):29.82 inches Hg (1009.9 mb)
Winds:calm
Visibility: 2.00 sm ( 3.22 km)
Ceiling:500 feet AGL
Clouds: overcast cloud deck at 500 feet AGL
Weather:-RA BR (light rain, mist)
QC Flag:automated observation with no human augmentation
Text:PASD 171056Z AUTO VRB06KT 3SM -RA BR OVC005 10/09 A2982 RMK AO2 CIG 003V007 SLP100 P0000 T01000094
Temperature: 10.0°C ( 50°F)
Dewpoint: 9.4°C ( 49°F) [RH = 96%]
Pressure (altimeter):29.82 inches Hg (1009.9 mb) [Sea level pressure: 1010.0 mb]
Winds:variable direction winds at 7 MPH (6 knots; 3.1 m/s)
Visibility: 3 sm ( 5 km)
Ceiling:500 feet AGL
Clouds: overcast cloud deck at 500 feet AGL
Weather:-RA BR (light rain, mist)
QC Flag:automated observation with no human augmentation
Text:PASD 171044Z AUTO 15007KT 130V200 2 1/2SM -RA BR OVC005 10/09 A2982 RMK AO2 CIG 003V007 P0000
Temperature: 10.0°C ( 50°F)
Dewpoint: 9.0°C ( 48°F) [RH = 93%]
Pressure (altimeter):29.82 inches Hg (1009.9 mb)
Winds:from the SSE (150 degrees) at 8 MPH (7 knots; 3.6 m/s)
Visibility: 2.50 sm ( 4.02 km)
Ceiling:500 feet AGL
Clouds: overcast cloud deck at 500 feet AGL
Weather:-RA BR (light rain, mist)
QC Flag:automated observation with no human augmentation
Text:PASD 171003Z AUTO 16005KT 3SM -RA BR SCT003 BKN008 OVC022 11/10 A2984 RMK AO2 CIG 006V011 P0000
Temperature: 11.0°C ( 52°F)
Dewpoint: 10.0°C ( 50°F) [RH = 94%]
Pressure (altimeter):29.84 inches Hg (1010.6 mb)
Winds:from the SSE (160 degrees) at 6 MPH (5 knots; 2.6 m/s)
Visibility: 3 sm ( 5 km)
Ceiling:800 feet AGL
Clouds: scattered clouds at 300 feet AGL, broken clouds at 800 feet AGL, overcast cloud deck at 2200 feet AGL
Weather:-RA BR (light rain, mist)
QC Flag:automated observation with no human augmentation
Text:PASD 170956Z AUTO 16007KT 2 1/2SM -RA BR SCT009 BKN015 OVC022 10/09 A2984 RMK AO2 RAB26 SLP105 P0000 T01000094
Temperature: 10.0°C ( 50°F)
Dewpoint: 9.4°C ( 49°F) [RH = 96%]
Pressure (altimeter):29.84 inches Hg (1010.6 mb) [Sea level pressure: 1010.5 mb]
Winds:from the SSE (160 degrees) at 8 MPH (7 knots; 3.6 m/s)
Visibility: 2.50 sm ( 4.02 km)
Ceiling:1500 feet AGL
Clouds: scattered clouds at 900 feet AGL, broken clouds at 1500 feet AGL, overcast cloud deck at 2200 feet AGL
Weather:-RA BR (light rain, mist)
QC Flag:automated observation with no human augmentation
Text:PASD 170953Z AUTO 16008KT 2 1/2SM -RA BR BKN009 BKN015 OVC022 10/09 A2984 RMK AO2 RAB26 CIG 005V011 P0000
Temperature: 10.0°C ( 50°F)
Dewpoint: 9.0°C ( 48°F) [RH = 93%]
Pressure (altimeter):29.84 inches Hg (1010.6 mb)
Winds:from the SSE (160 degrees) at 9 MPH (8 knots; 4.1 m/s)
Visibility: 2.50 sm ( 4.02 km)
Ceiling:900 feet AGL
Clouds: broken clouds at 900 feet AGL, broken clouds at 1500 feet AGL, overcast cloud deck at 2200 feet AGL
Weather:-RA BR (light rain, mist)
QC Flag:automated observation with no human augmentation
Text:PASD 170934Z AUTO 17009KT 6SM -RA BR FEW009 OVC024 11/09 A2985 RMK AO2 RAB26 P0000
Temperature: 11.0°C ( 52°F)
Dewpoint: 9.0°C ( 48°F) [RH = 87%]
Pressure (altimeter):29.85 inches Hg (1010.9 mb)
Winds:from the S (170 degrees) at 10 MPH (9 knots; 4.6 m/s)
Visibility: 6 sm ( 10 km)
Ceiling:2400 feet AGL
Clouds: few clouds at 900 feet AGL, overcast cloud deck at 2400 feet AGL
Weather:-RA BR (light rain, mist)
QC Flag:automated observation with no human augmentation

TAF for:PASD (Sand Point Arpt, AK, US) issued at 1140 UTC 17 Sep 2019
Text:PASD 171140Z 1712/1812 00000KT 2SM -RA BR OVC005 WS020/20030KT
Forecast period:1200 to 1600 UTC 17 September 2019
Forecast type:FROM: standard forecast or significant change
Winds:calm
Visibility: 2.00 sm ( 3.22 km)
Ceiling:500 feet AGL
Clouds: overcast cloud deck at 500 feet AGL
Weather:-RA BR (light rain, mist)
Wind Shear:200 degrees at 30 knots at 2000 feet AGL
Text:FM171600 17010KT 3SM -RA BR OVC005 WS020/23043KT
Forecast period:1600 to 1800 UTC 17 September 2019
Forecast type:FROM: standard forecast or significant change
Winds:from the S (170 degrees) at 12 MPH (10 knots; 5.1 m/s)
Visibility: 3 sm ( 5 km)
Ceiling:500 feet AGL
Clouds: overcast cloud deck at 500 feet AGL
Weather:-RA BR (light rain, mist)
Wind Shear:230 degrees at 43 knots at 2000 feet AGL
Text:FM171800 17010KT 3SM -RA BR OVC005
Forecast period:1800 UTC 17 September 2019 to 0100 UTC 18 September 2019
Forecast type:FROM: standard forecast or significant change
Winds:from the S (170 degrees) at 12 MPH (10 knots; 5.1 m/s)
Visibility: 3 sm ( 5 km)
Ceiling:500 feet AGL
Clouds: overcast cloud deck at 500 feet AGL
Weather:-RA BR (light rain, mist)
Text:FM180100 20018G26KT P6SM -RA OVC005 AMD LTD TO CLD VIS AND WIND
Forecast period:0100 to 1200 UTC 18 September 2019
Forecast type:FROM: standard forecast or significant change
Winds:from the SSW (200 degrees) at 21 MPH (18 knots; 9.3 m/s) gusting to 30 MPH (26 knots; 13.4 m/s)
Visibility:6 or more sm (10+ km)
Ceiling:500 feet AGL
Clouds: overcast cloud deck at 500 feet AGL
Weather:-RA (light rain)